Flight Track Log - Related Links

Times and Time Zones

All times are in EST time to prevent confusion due to time zone crossing. See the FIN767 flight status page for this flight to view local times or setup timezone preferences in your user account.

Time Position Orientation Groundspeed Altitude Reporting Facility
EST Latitude Longitude Course Direction KTS MPH feet Rate Location/Type
Sun 10:17:00 AM 59.9851 24.6484 205° Southwest  Level Estimated
Sun 10:18:00 AM 59.9020 24.5707 205° Southwest  Level Estimated
Sun 10:19:00 AM 59.8139 24.4888 205° Southwest  Level Estimated
Sun 10:20:00 AM 59.7257 24.4073 205° Southwest  Level Estimated
Sun 10:21:00 AM 59.6375 24.3262 205° Southwest  Level Estimated
Sun 10:22:00 AM 59.5493 24.2456 205° Southwest  Level Estimated
Sun 10:23:00 AM 59.4610 24.1653 205° Southwest  Level Estimated
Sun 10:24:00 AM 59.3726 24.0855 205° Southwest  Level Estimated
Sun 10:25:00 AM 59.2842 24.0061 205° Southwest  Level Estimated
Sun 10:26:00 AM 59.1957 23.9272 205° Southwest  Level Estimated
Sun 10:27:00 AM 59.1072 23.8486 205° Southwest  Level Estimated
Sun 10:28:00 AM 59.0187 23.7705 204° Southwest  Level Estimated
Sun 10:29:00 AM 58.9301 23.6927 204° Southwest  Level Estimated
Sun 10:30:00 AM 58.8414 23.6153 204° Southwest  Level Estimated
Sun 10:31:00 AM 58.7528 23.5384 204° Southwest  Level Estimated
Sun 10:32:00 AM 58.6640 23.4618 204° Southwest  Level Estimated
Sun 10:33:00 AM 58.5752 23.3856 204° Southwest  Level Estimated
Sun 10:34:00 AM 58.4864 23.3098 204° Southwest  Level Estimated
Sun 10:35:00 AM 58.3975 23.2344 204° Southwest  Level Estimated
Sun 10:36:00 AM 58.3086 23.1593 204° Southwest  Level Estimated
Sun 10:37:00 AM 58.2197 23.0847 204° Southwest  Level Estimated
Sun 10:38:00 AM 58.1307 23.0104 204° Southwest  Level Estimated
Sun 10:39:00 AM 58.0416 22.9365 204° Southwest  Level Estimated
Sun 10:40:00 AM 57.9525 22.8629 204° Southwest  Level Estimated
Sun 10:41:00 AM 57.8634 22.7897 204° Southwest  Level Estimated
Sun 10:42:00 AM 57.7742 22.7169 204° Southwest  Level Estimated
Sun 10:43:00 AM 57.6850 22.6444 203° Southwest  Level Estimated
Sun 10:44:00 AM 57.5958 22.5723 203° Southwest  Level Estimated
Sun 10:45:00 AM 57.5065 22.5006 203° Southwest  Level Estimated
Sun 10:46:00 AM 57.4171 22.4292 203° Southwest  Level Estimated
Sun 10:47:00 AM 57.3278 22.3581 203° Southwest  Level Estimated
Sun 10:48:00 AM 57.2383 22.2874 203° Southwest  Level Estimated
Sun 10:49:00 AM 57.1489 22.2170 203° Southwest  Level Estimated
Sun 10:50:00 AM 57.0594 22.1470 203° Southwest  Level Estimated
Sun 10:51:00 AM 56.9699 22.0773 203° Southwest  Level Estimated
Sun 10:52:00 AM 56.8803 22.0079 203° Southwest  Level Estimated
Sun 10:53:00 AM 56.7907 21.9389 203° Southwest  Level Estimated
Sun 10:54:00 AM 56.7010 21.8702 203° Southwest  Level Estimated
Sun 10:55:00 AM 56.6114 21.8018 203° Southwest  Level Estimated
Sun 10:56:00 AM 56.5216 21.7338 203° Southwest  Level Estimated
Sun 10:57:00 AM 56.4319 21.6661 203° Southwest  Level Estimated
Sun 10:58:00 AM 56.3421 21.5986 203° Southwest  Level Estimated
Sun 10:59:00 AM 56.2523 21.5316 203° Southwest  Level Estimated
Sun 11:00:00 AM 56.1624 21.4648 202° Southwest  Level Estimated
Sun 11:01:00 AM 56.0725 21.3983 202° Southwest  Level Estimated
Sun 11:02:00 AM 55.9825 21.3321 202° Southwest  Level Estimated
Sun 11:03:00 AM 55.8926 21.2663 202° Southwest  Level Estimated
Sun 11:04:00 AM 55.8026 21.2008 202° Southwest  Level Estimated
Sun 11:05:00 AM 55.7125 21.1355 202° Southwest  Level Estimated
Sun 11:06:00 AM 55.6224 21.0706 202° Southwest  Level Estimated
Sun 11:07:00 AM 55.5323 21.0059 202° Southwest  Level Estimated
Sun 11:08:00 AM 55.4422 20.9416 202° Southwest  Level Estimated
Sun 11:09:00 AM 55.3520 20.8775 202° Southwest  Level Estimated
Sun 11:10:00 AM 55.2618 20.8138 202° Southwest  Level Estimated
Sun 11:11:00 AM 55.1715 20.7503 202° Southwest  Level Estimated
Sun 11:12:00 AM 55.0812 20.6871 202° Southwest  Level Estimated
Sun 11:13:00 AM 54.9909 20.6242 202° Southwest  Level Estimated
Sun 11:14:00 AM 54.9006 20.5616 202° Southwest  Level Estimated
Sun 11:15:00 AM 54.8102 20.4992 202° Southwest  Level Estimated
Sun 11:16:00 AM 54.7156 20.4343 202° Southwest  Level Estimated
Sun 11:17:00 AM 54.6209 20.3697 202° Southwest  Level Estimated
Sun 11:18:00 AM 54.5263 20.3053 202° Southwest  Level Estimated
Sun 11:19:00 AM 54.4315 20.2413 201° Southwest  Level Estimated
Sun 11:20:00 AM 54.3368 20.1775 201° Southwest  Level Estimated
Sun 11:21:00 AM 54.2420 20.1141 201° Southwest  Level Estimated
Sun 11:22:00 AM 54.1472 20.0509 201° Southwest  Level Estimated
Sun 11:23:00 AM 54.0523 19.9881 201° Southwest  Level Estimated
Sun 11:24:00 AM 53.9575 19.9255 201° Southwest  Level Estimated
Sun 11:25:00 AM 53.8625 19.8632 201° Southwest  Level Estimated
Sun 11:26:00 AM 53.7676 19.8011 201° Southwest  Level Estimated
Sun 11:27:00 AM 53.6726 19.7394 201° Southwest  Level Estimated
Sun 11:28:00 AM 53.5776 19.6779 201° Southwest  Level Estimated
Sun 11:29:00 AM 53.4826 19.6168 201° Southwest  Level Estimated
Sun 11:30:00 AM 53.3875 19.5558 201° Southwest  Level Estimated
Sun 11:31:00 AM 53.2924 19.4952 201° Southwest  Level Estimated
Sun 11:32:00 AM 53.1973 19.4348 201° Southwest  Level Estimated
Sun 11:33:00 AM 53.1021 19.3747 201° Southwest  Level Estimated
Sun 11:34:00 AM 53.0069 19.3149 201° Southwest  Level Estimated
Sun 11:35:00 AM 52.9117 19.2553 201° Southwest  Level Estimated
Sun 11:36:00 AM 52.8164 19.1960 201° Southwest  Level Estimated
Sun 11:37:00 AM 52.7211 19.1369 201° Southwest  Level Estimated
Sun 11:38:00 AM 52.6258 19.0781 201° Southwest  Level Estimated
Sun 11:39:00 AM 52.5304 19.0196 200° South  Level Estimated
Sun 11:40:00 AM 52.4351 18.9613 200° South  Level Estimated
Sun 11:41:00 AM 52.3397 18.9032 200° South  Level Estimated
Sun 11:42:00 AM 52.2443 18.8455 200° South  Level Estimated
Sun 11:43:00 AM 52.1488 18.7879 200° South  Level Estimated
Sun 11:44:00 AM 52.0533 18.7306 200° South  Level Estimated
Sun 11:45:00 AM 51.9578 18.6736 200° South  Level Estimated
Sun 11:46:00 AM 51.8623 18.6168 200° South  Level Estimated
Sun 11:47:00 AM 51.7667 18.5602 200° South  Level Estimated
Sun 11:48:00 AM 51.6711 18.5039 200° South  Level Estimated
Sun 11:49:00 AM 51.5755 18.4478 200° South  Level Estimated
Sun 11:50:00 AM 51.4798 18.3919 200° South  Level Estimated
Sun 11:51:00 AM 51.3842 18.3363 200° South  Level Estimated
Sun 11:52:00 AM 51.2885 18.2809 200° South  Level Estimated
Sun 11:53:00 AM 51.1927 18.2258 200° South  Level Estimated
Sun 11:54:00 AM 51.0970 18.1708 200° South  Level Estimated
Sun 11:55:00 AM 51.0012 18.1161 200° South  Level Estimated
Sun 11:56:00 AM 50.9054 18.0617 200° South  Level Estimated
Sun 11:57:00 AM 50.8096 18.0074 200° South  Level Estimated
Sun 11:58:00 AM 50.7137 17.9534 200° South  Level Estimated
Sun 11:59:00 AM 50.6178 17.8996 200° South  Level Estimated
Sun 12:00:00 PM 50.5219 17.8460 200° South  Level Estimated
Sun 12:01:00 PM 50.4260 17.7926 200° South  Level Estimated
Sun 12:02:00 PM 50.3301 17.7395 199° South  Level Estimated
Sun 12:03:00 PM 50.2341 17.6865 199° South  Level Estimated
Sun 12:04:00 PM 50.1381 17.6338 199° South  Level Estimated
Sun 12:05:00 PM 50.0421 17.5813 199° South  Level Estimated
Sun 12:06:00 PM 49.9460 17.5289 199° South  Level Estimated
Sun 12:07:00 PM 49.8499 17.4769 199° South  Level Estimated
Sun 12:08:00 PM 49.7538 17.4250 199° South  Level Estimated
Sun 12:09:00 PM 49.6577 17.3733 199° South  Level Estimated
Sun 12:10:00 PM 49.5616 17.3218 199° South  Level Estimated
Sun 12:11:00 PM 49.4654 17.2705 199° South  Level Estimated
Sun 12:12:00 PM 49.3692 17.2194 199° South  Level Estimated
Sun 12:13:00 PM 49.2730 17.1686 199° South  Level Estimated
Sun 12:14:00 PM 49.1768 17.1179 199° South  Level Estimated
Sun 12:15:00 PM 49.0806 17.0674 199° South  Level Estimated
Sun 12:16:00 PM 48.9843 17.0171 199° South  Level Estimated
Sun 12:17:00 PM 48.8880 16.9670 199° South  Level Estimated
Sun 12:18:00 PM 48.7917 16.9171 199° South  Level Estimated
Sun 12:19:00 PM 48.6953 16.8674 199° South  Level Estimated
Sun 12:20:00 PM 48.5990 16.8179 199° South  Level Estimated
Sun 12:21:00 PM 48.4962 16.7653 199° South  Level Estimated
Sun 12:22:00 PM 48.3934 16.7129 199° South  Level Estimated
Sun 12:23:00 PM 48.2906 16.6607 199° South  Level Estimated
Sun 12:24:00 PM 48.1878 16.6087 199° South  Level Estimated
Sun 12:25:00 PM 48.1103 16.5697 199° South  Level Estimated
Sun 12:26:00 PM 48.1103 16.5697 146° Southeast  Level Estimated
Sun 12:27:00 PM 48.1103 16.5697 146° Southeast  Level Estimated
Sun 12:28:00 PM 48.1103 16.5697 146° Southeast  Level Estimated
Sun 12:29:00 PM 48.1103 16.5697 146° Southeast  Level Estimated
Sun 12:30:00 PM 48.1103 16.5697 146° Southeast  Level Estimated

Login

Don't have an account? Register now (free) for customized features, flight alerts, and more!